หน้าหลัก
METAR-TAF:

METAR-TAF

ท่าอากาศยาน :

ท่าอากาศยานนานาชาติเฉิงตูซวงหลิว

เฉิงตู, จีน

ละติจูด: 30-40N, ลองจิจูด: 104-01E, ความสูง: 508 ม.

การสังเกตสภาพอากาศปัจจุบัน

รายงานได้ทำขึ้นเมื่อ 36 นาทีที่แล้ว ณ เวลา 22:00 UTC
ลม 4 นอตจากตะวันตกเฉียงใต้
อุณหภูมิ 18°C
ความชื้น 88%
ความกดอากาศ 1006 hPa
ทัศนวิสัย 10 กม. หรือมากกว่า
มีเมฆน้อยที่ความสูง 2600 ฟุต
มีเมฆกระจายเป็นบางส่วนที่ความสูง 5000 ฟุต

METAR: ZUUU 182200Z 23002MPS 9999 FEW026 SCT050 18/16 Q1006 NOSIG

เวลา: 06:36 (22:36 UTC)

การพยากรณ์

รายงานได้ทำขึ้นเมื่อ 7 ชั่วโมงและ 21 นาทีที่แล้ว ณ เวลา 15:15 UTC
การพยากรณ์มีผลตั้งแต่วันที่ 18 ณ เวลา 18 UTC จนถึงวันที่ 19 ณ เวลา 18 UTC
ลม 6 นอตจากเหนือ/ตะวันออกเฉียงเหนือ
ทัศนวิสัย: 5000 ม.
มีเมฆน้อยที่ความสูง 1000 ฟุต
มีเมฆกระจายเป็นบางส่วนที่ความสูง 5000 ฟุต
หมอกน้ำค้าง
กำลังกลายเป็น
ตั้งแต่วันที่ 18 ณ เวลา 21 UTC จนถึงวันที่ 18 ณ เวลา 22 UTC
ทัศนวิสัย: 2300 ม.
กำลังกลายเป็น
ตั้งแต่วันที่ 18 ณ เวลา 23 UTC จนถึงวันที่ 18 ณ เวลา 24 UTC
ทัศนวิสัย: 5000 ม.

TAF: ZUUU 181515Z 1818/1918 02003MPS 5000 BR FEW010 SCT050 TX27/1907Z TN17/1822Z BECMG 1821/1822 2300 BECMG 1823/1824 5000

สังเกตการณ์สภาพอากาศและพยากรณ์อากาศของสนามบินมากกว่า 4000 แห่ง (รายงาน METAR และ TAF).

สถานีที่ดูได้จะแสดงไว้ด้วยจุดสีเหลืองและสีแดงบนแผนที่.

เลื่อนเมาส์ไปเหนือจุดเพื่อดูชื่อสถานี.

แล้วคลิกเพื่อดูสังเกตการณ์และการพยากรณ์สภาพอากาศ.

ในการเปลี่ยนแผนที่: คลิกที่ปุ่มสีเขียวที่มีกากบาทสีดำเพื่อซูมเข้า; ที่ปุ่มสีเขียวที่มีขีดเพื่อซูมออก; หรือที่ลูกศรสีเขียวเพื่อไปยังแผนที่ที่อยู่ติดกัน.


METAR-TAF: